Time;durP1;ratioP1;P1;durP2;ratioP2;P2;SDS_P1;SDS_P2;PMS_P1;PMS_P2;Temp;Humidity;BMP_temperature;BMP_pressure;BME280_temperature;BME280_humidity;BME280_pressure;Samples;Min_cycle;Max_cycle;Signal;HPM_P1;HPM_P2
2023/09/09 00:00:06;;;;;;;6.00;4.50;;;;;;;19.19;86.45;95033.69;5049264;28;20191;-43
2023/09/09 00:02:33;;;;;;;6.93;4.10;;;;;;;19.18;86.29;95035.47;5048849;28;20202;-43
2023/09/09 00:05:00;;;;;;;7.50;4.90;;;;;;;19.15;86.82;95030.63;5049177;28;20297;-44
2023/09/09 00:07:27;;;;;;;7.17;4.47;;;;;;;19.14;86.86;95041.19;5049002;28;20180;-45
2023/09/09 00:09:53;;;;;;;5.63;5.03;;;;;;;19.04;87.66;95038.88;5049203;28;20898;-44
2023/09/09 00:12:21;;;;;;;8.20;4.57;;;;;;;19.00;87.82;95041.03;5048775;28;20674;-43
2023/09/09 00:14:48;;;;;;;9.10;4.53;;;;;;;18.92;88.46;95035.97;5049034;28;20226;-44
2023/09/09 00:17:15;;;;;;;9.60;4.70;;;;;;;18.91;88.45;95036.94;5049267;28;20202;-44
2023/09/09 00:19:42;;;;;;;5.63;5.10;;;;;;;18.86;88.96;95030.69;5048878;28;20198;-44
2023/09/09 00:22:08;;;;;;;6.90;5.03;;;;;;;18.83;89.12;95031.84;5050899;28;20183;-44
2023/09/09 00:24:35;;;;;;;6.03;5.10;;;;;;;18.82;89.24;95027.63;5053204;28;20214;-43
2023/09/09 00:27:02;;;;;;;7.67;5.13;;;;;;;18.78;89.60;95024.63;5052688;28;20199;-44
2023/09/09 00:29:30;;;;;;;9.47;5.90;;;;;;;18.79;89.60;95028.81;5052795;28;20313;-43
2023/09/09 00:31:57;;;;;;;6.23;4.93;;;;;;;18.81;89.39;95028.63;5053070;28;20194;-42
2023/09/09 00:34:24;;;;;;;9.07;5.60;;;;;;;18.77;89.39;95030.78;5052598;28;20230;-42
2023/09/09 00:36:50;;;;;;;7.77;5.47;;;;;;;18.86;89.43;95023.69;5052733;28;20210;-43
2023/09/09 00:39:17;;;;;;;8.50;5.63;;;;;;;18.78;89.48;95027.22;5052341;28;20705;-43
2023/09/09 00:41:44;;;;;;;7.37;5.80;;;;;;;18.82;89.17;95035.41;5052584;28;20290;-43
2023/09/09 00:44:10;;;;;;;8.50;5.20;;;;;;;18.79;89.71;95034.00;5052624;28;20253;-43
2023/09/09 00:46:39;;;;;;;7.83;5.70;;;;;;;18.79;89.79;95040.97;5052509;28;20183;-43
2023/09/09 00:49:05;;;;;;;8.23;5.37;;;;;;;18.76;89.69;95034.34;5052613;28;20203;-43
2023/09/09 00:51:32;;;;;;;6.93;5.73;;;;;;;18.79;89.99;95035.78;5052215;28;20289;-44
2023/09/09 00:53:59;;;;;;;12.40;5.97;;;;;;;18.74;90.61;95036.34;5052270;28;20222;-43
2023/09/09 00:56:26;;;;;;;6.40;5.80;;;;;;;18.70;90.70;95023.91;5052051;28;20198;-43
2023/09/09 00:58:53;;;;;;;9.33;6.20;;;;;;;18.69;91.05;95030.84;5052091;28;20202;-43
2023/09/09 01:01:20;;;;;;;6.77;6.07;;;;;;;18.70;91.15;95032.50;5052246;28;20195;-44
2023/09/09 01:03:53;;;;;;;8.70;6.23;;;;;;;18.67;91.59;95025.03;5052289;28;20195;-43
2023/09/09 01:06:20;;;;;;;6.43;5.80;;;;;;;18.62;92.27;95023.97;5052222;28;20180;-43
2023/09/09 01:08:47;;;;;;;9.33;6.27;;;;;;;18.56;92.99;95022.88;5052053;28;20554;-43
2023/09/09 01:11:14;;;;;;;5.97;5.37;;;;;;;18.52;93.35;95019.03;5052048;28;20217;-42
2023/09/09 01:13:41;;;;;;;8.43;6.47;;;;;;;18.49;93.72;95020.22;5051892;28;20219;-42
2023/09/09 01:16:09;;;;;;;8.40;5.87;;;;;;;18.46;94.10;95015.38;5051859;28;20253;-44
2023/09/09 01:18:35;;;;;;;8.70;5.80;;;;;;;18.39;94.14;95011.09;5052048;28;20206;-42
2023/09/09 01:21:07;;;;;;;11.27;5.70;;;;;;;18.41;94.62;95019.50;5051760;28;20622;-43
2023/09/09 01:23:36;;;;;;;9.47;5.70;;;;;;;18.38;94.73;95017.25;5052044;28;20183;-44
2023/09/09 01:26:02;;;;;;;9.03;5.57;;;;;;;18.38;94.76;95019.84;5051424;28;20183;-43
2023/09/09 01:28:29;;;;;;;10.17;6.63;;;;;;;18.38;94.83;95019.84;5051905;28;20320;-43
2023/09/09 01:30:56;;;;;;;9.07;5.23;;;;;;;18.34;95.32;95010.81;5051677;28;20608;-44
2023/09/09 01:33:23;;;;;;;9.90;5.93;;;;;;;18.31;95.51;95006.81;5050964;28;20192;-44
2023/09/09 01:35:50;;;;;;;9.20;6.27;;;;;;;18.21;95.44;94988.94;5051501;28;20659;-44
2023/09/09 01:38:17;;;;;;;7.33;5.50;;;;;;;18.30;95.73;94997.41;5051560;28;20454;-43
2023/09/09 01:40:45;;;;;;;7.87;5.67;;;;;;;18.28;95.71;94999.41;5051591;28;20183;-43
2023/09/09 01:43:12;;;;;;;5.73;5.10;;;;;;;18.26;96.16;95002.19;5051335;28;20727;-43
2023/09/09 01:45:38;;;;;;;6.73;5.73;;;;;;;18.15;96.23;94988.84;5051281;28;20654;-42
2023/09/09 01:48:06;;;;;;;7.37;5.30;;;;;;;18.24;96.41;95011.88;5051221;28;20241;-43
2023/09/09 01:50:33;;;;;;;10.37;6.13;;;;;;;18.20;96.77;95008.03;5051256;28;20286;-44
2023/09/09 01:52:59;;;;;;;8.57;5.93;;;;;;;18.21;96.67;95014.03;5050941;28;20278;-44
2023/09/09 01:55:26;;;;;;;9.07;6.70;;;;;;;18.19;96.86;95014.22;5051520;28;20344;-44
2023/09/09 01:57:54;;;;;;;6.57;5.97;;;;;;;17.97;96.69;94977.03;5050978;28;20190;-43
2023/09/09 02:00:21;;;;;;;12.93;5.97;;;;;;;18.18;96.81;95014.41;5051377;28;20256;-43
2023/09/09 02:02:48;;;;;;;7.07;6.00;;;;;;;18.17;96.74;95013.56;5050802;28;20199;-43
2023/09/09 02:05:15;;;;;;;13.07;6.23;;;;;;;18.17;96.53;95018.75;5051199;28;20277;-44
2023/09/09 02:07:41;;;;;;;6.20;5.37;;;;;;;18.13;96.42;95012.31;5051190;28;20273;-43
2023/09/09 02:10:09;;;;;;;9.97;6.37;;;;;;;18.12;96.49;95012.50;5050674;28;20198;-44
2023/09/09 02:12:36;;;;;;;11.23;6.30;;;;;;;18.04;96.55;95003.00;5051684;28;20198;-44
2023/09/09 02:15:06;;;;;;;14.37;6.50;;;;;;;18.08;96.59;95012.03;5050910;28;20231;-44
2023/09/09 02:17:36;;;;;;;10.10;6.13;;;;;;;18.07;96.65;95010.44;5051114;28;20249;-43
2023/09/09 02:20:05;;;;;;;10.47;6.03;;;;;;;18.01;96.92;95019.72;5050659;28;20581;-44
2023/09/09 02:22:32;;;;;;;12.47;6.33;;;;;;;17.97;97.08;95015.88;5050841;28;20191;-43
2023/09/09 02:24:59;;;;;;;7.43;5.90;;;;;;;17.94;97.13;95018.00;5050734;28;20190;-44
2023/09/09 02:27:26;;;;;;;10.13;8.40;;;;;;;17.88;97.79;95008.34;5050597;28;20202;-42
2023/09/09 02:29:53;;;;;;;12.77;7.90;;;;;;;17.88;97.64;95016.13;5050149;28;20276;-42
2023/09/09 02:32:21;;;;;;;11.80;8.50;;;;;;;17.85;97.88;95016.47;5050966;28;20215;-45
2023/09/09 02:34:47;;;;;;;11.67;8.87;;;;;;;17.78;98.16;95008.56;5050269;28;20273;-43
2023/09/09 02:37:16;;;;;;;13.43;8.97;;;;;;;17.66;98.11;95000.41;5050620;28;20538;-43
2023/09/09 02:39:44;;;;;;;12.83;8.00;;;;;;;17.79;97.75;95016.19;5050411;28;20199;-45
2023/09/09 02:42:13;;;;;;;12.60;8.07;;;;;;;17.81;97.34;95021.16;5050307;28;20260;-42
2023/09/09 02:44:40;;;;;;;8.13;7.03;;;;;;;17.83;97.70;95021.78;5050024;28;20305;-42
2023/09/09 02:47:08;;;;;;;7.73;7.03;;;;;;;17.77;97.74;95012.94;5050134;28;20557;-43
2023/09/09 02:49:37;;;;;;;18.03;7.20;;;;;;;17.74;97.79;95018.47;5050307;28;20280;-43
2023/09/09 02:52:05;;;;;;;11.33;7.40;;;;;;;17.70;97.73;95024.94;5050365;28;20187;-42
2023/09/09 02:54:32;;;;;;;7.10;6.43;;;;;;;17.68;97.64;95023.50;5050282;28;20222;-42
2023/09/09 02:56:58;;;;;;;11.07;6.93;;;;;;;17.61;97.52;95020.00;5050212;28;20202;-43
2023/09/09 02:59:25;;;;;;;7.53;6.70;;;;;;;17.55;97.45;95018.91;5050816;28;20191;-43
2023/09/09 03:01:52;;;;;;;8.83;6.43;;;;;;;17.48;97.43;95011.03;5050101;28;20213;-43
2023/09/09 03:04:19;;;;;;;11.70;7.07;;;;;;;17.45;97.36;95018.34;5050591;28;20256;-44
2023/09/09 03:06:47;;;;;;;9.83;6.80;;;;;;;17.42;97.40;95014.31;5049853;28;20260;-43
2023/09/09 03:09:14;;;;;;;10.20;6.80;;;;;;;17.34;97.41;95011.78;5050275;28;20274;-43
2023/09/09 03:11:41;;;;;;;8.60;7.70;;;;;;;17.37;97.37;95014.03;5049962;28;20183;-42
2023/09/09 03:14:09;;;;;;;8.07;7.27;;;;;;;17.35;97.46;95012.56;5050167;28;20197;-42
2023/09/09 03:16:35;;;;;;;9.97;7.10;;;;;;;17.23;97.74;95014.75;5049641;28;20678;-42
2023/09/09 03:19:02;;;;;;;10.20;7.50;;;;;;;17.21;97.58;95016.69;5049741;28;20249;-43
2023/09/09 03:21:29;;;;;;;8.77;7.10;;;;;;;17.18;97.69;95012.66;5049857;28;20187;-42
2023/09/09 03:23:57;;;;;;;7.80;7.07;;;;;;;17.14;97.90;95015.75;5049716;28;20210;-44
2023/09/09 03:26:24;;;;;;;9.13;7.33;;;;;;;17.08;98.12;95012.09;5049608;28;20198;-43
2023/09/09 03:28:51;;;;;;;10.10;7.97;;;;;;;17.08;98.03;95011.28;5049809;28;20202;-42
2023/09/09 03:31:18;;;;;;;10.40;6.70;;;;;;;17.05;98.23;95023.56;5049553;28;20226;-45
2023/09/09 03:33:45;;;;;;;10.23;7.07;;;;;;;17.04;98.12;95016.78;5049725;28;20186;-42
2023/09/09 03:36:12;;;;;;;14.40;7.70;;;;;;;17.02;98.37;95018.75;5049342;28;20226;-42
2023/09/09 03:38:40;;;;;;;8.53;7.20;;;;;;;16.99;98.45;95021.66;5049421;28;20178;-44
2023/09/09 03:41:08;;;;;;;7.93;6.60;;;;;;;16.94;98.71;95023.94;5049345;28;20216;-43
2023/09/09 03:43:36;;;;;;;8.23;6.73;;;;;;;16.79;98.82;95003.16;5049507;28;20632;-42
2023/09/09 03:46:03;;;;;;;8.47;7.00;;;;;;;16.88;98.84;95016.03;5049387;28;20191;-44
2023/09/09 03:48:30;;;;;;;11.80;8.10;;;;;;;16.83;99.02;95019.13;5049079;28;20199;-42
2023/09/09 03:51:00;;;;;;;9.10;7.00;;;;;;;16.79;99.18;95018.66;5049175;28;20229;-42
2023/09/09 03:53:27;;;;;;;12.40;6.77;;;;;;;16.83;99.42;95021.72;5049258;28;20191;-41
2023/09/09 03:55:54;;;;;;;12.47;7.10;;;;;;;16.82;99.20;95027.06;5049853;28;20591;-43
2023/09/09 03:58:23;;;;;;;9.53;6.90;;;;;;;16.79;99.38;95026.41;5055367;28;20240;-43
2023/09/09 04:00:50;;;;;;;9.23;7.90;;;;;;;16.78;99.47;95022.22;5056187;28;20203;-43
2023/09/09 04:03:17;;;;;;;11.03;7.00;;;;;;;16.75;99.71;95027.75;5056022;28;20194;-43
2023/09/09 04:05:47;;;;;;;8.87;7.40;;;;;;;16.73;99.62;95027.09;5056247;28;20198;-44
2023/09/09 04:08:14;;;;;;;13.47;7.50;;;;;;;16.72;99.76;95022.91;5055835;28;20297;-43
2023/09/09 04:10:41;;;;;;;12.77;7.90;;;;;;;16.71;99.94;95026.44;5055930;28;20635;-43
2023/09/09 04:13:07;;;;;;;8.27;7.07;;;;;;;16.70;99.69;95022.22;5055730;28;20191;-42
2023/09/09 04:15:40;;;;;;;11.37;7.33;;;;;;;16.70;99.91;95024.81;5055712;28;20222;-44
2023/09/09 04:18:07;;;;;;;9.47;7.43;;;;;;;16.70;99.92;95022.22;5055666;28;20191;-43
2023/09/09 04:20:34;;;;;;;9.17;7.20;;;;;;;16.28;99.73;94948.47;5055703;28;20206;-47
2023/09/09 04:23:00;;;;;;;8.83;6.87;;;;;;;16.72;99.95;95017.75;5055649;28;20655;-43
2023/09/09 04:25:27;;;;;;;9.43;7.93;;;;;;;16.72;99.99;95032.41;5055307;28;20639;-43
2023/09/09 04:27:54;;;;;;;16.47;7.43;;;;;;;16.20;100.00;94939.97;5055538;28;20194;-43
2023/09/09 04:30:21;;;;;;;9.60;7.80;;;;;;;16.70;100.00;95022.22;5055205;28;20436;-43
2023/09/09 04:32:49;;;;;;;10.17;7.20;;;;;;;16.71;100.00;95023.03;5055964;28;20179;-44
2023/09/09 04:35:15;;;;;;;9.50;7.27;;;;;;;16.72;100.00;95015.16;5055184;28;20336;-43
2023/09/09 04:37:42;;;;;;;8.37;7.23;;;;;;;16.76;100.00;95020.78;5055376;28;20191;-42
2023/09/09 04:40:10;;;;;;;11.83;7.70;;;;;;;16.84;99.96;95025.94;5055172;28;20194;-42
2023/09/09 04:42:37;;;;;;;9.40;7.43;;;;;;;16.92;99.74;95025.88;5055734;28;20250;-43
2023/09/09 04:45:05;;;;;;;10.07;7.37;;;;;;;16.99;99.57;95026.03;5055423;28;20662;-43
2023/09/09 04:47:33;;;;;;;11.57;8.67;;;;;;;17.02;99.38;95028.28;5055532;28;20218;-43
2023/09/09 04:50:02;;;;;;;8.57;7.67;;;;;;;17.08;99.01;95025.00;5055324;28;20219;-44
2023/09/09 04:52:29;;;;;;;10.47;7.80;;;;;;;17.16;98.85;95026.75;5055158;28;20283;-46
2023/09/09 04:54:56;;;;;;;8.97;7.73;;;;;;;17.21;98.67;95027.03;5055735;28;20256;-43
2023/09/09 04:57:22;;;;;;;10.87;7.50;;;;;;;17.25;98.36;95021.34;5055249;28;20191;-45
2023/09/09 04:59:49;;;;;;;11.93;8.23;;;;;;;17.32;98.10;95020.69;5055241;28;20190;-44
2023/09/09 05:02:16;;;;;;;13.17;7.77;;;;;;;17.41;97.73;95020.47;5055110;28;20230;-45
2023/09/09 05:04:43;;;;;;;11.93;8.03;;;;;;;17.42;97.32;95009.13;5055281;28;20183;-42
2023/09/09 05:07:11;;;;;;;13.53;7.97;;;;;;;17.69;96.32;95027.69;5055144;28;20191;-43
2023/09/09 05:09:38;;;;;;;9.03;7.70;;;;;;;17.75;96.00;95020.09;5051220;28;20253;-44
2023/09/09 05:12:05;;;;;;;8.40;7.17;;;;;;;18.10;95.24;95024.81;5051846;28;20198;-43
2023/09/09 05:14:32;;;;;;;8.60;7.03;;;;;;;18.38;93.62;95027.59;5052124;28;20659;-43
2023/09/09 05:16:59;;;;;;;11.87;7.40;;;;;;;18.67;91.76;95022.44;5051750;28;20760;-44
2023/09/09 05:19:25;;;;;;;9.93;6.70;;;;;;;18.94;90.50;95023.59;5052310;28;20206;-45
2023/09/09 05:21:52;;;;;;;11.13;6.90;;;;;;;19.24;89.39;95021.75;5051957;28;20187;-44
2023/09/09 05:24:20;;;;;;;11.30;6.77;;;;;;;19.50;88.05;95023.03;5051880;28;20195;-44
2023/09/09 05:26:47;;;;;;;10.50;7.23;;;;;;;19.73;86.78;95021.09;5051869;28;20717;-43
2023/09/09 05:29:14;;;;;;;10.43;7.47;;;;;;;20.02;85.51;95017.53;5051325;28;20198;-45
2023/09/09 05:31:40;;;;;;;8.87;6.23;;;;;;;20.23;84.10;95021.88;5051636;28;20681;-44
2023/09/09 05:34:07;;;;;;;10.27;7.23;;;;;;;20.34;83.23;95025.78;5051157;28;20717;-43
2023/09/09 05:36:34;;;;;;;10.75;6.97;;;;;;;20.46;82.73;95028.63;5051397;28;20709;-45
2023/09/09 05:39:01;;;;;;;9.50;6.82;;;;;;;20.61;82.09;95023.38;5051532;28;20187;-46
2023/09/09 05:41:30;;;;;;;9.63;7.17;;;;;;;20.76;81.68;95024.81;5051639;28;20194;-45
2023/09/09 05:43:56;;;;;;;12.15;7.80;;;;;;;21.07;80.18;95034.00;5051147;28;20669;-43
2023/09/09 05:46:23;;;;;;;11.98;8.55;;;;;;;21.48;78.11;95028.72;5051510;28;20264;-44
2023/09/09 05:48:50;;;;;;;10.68;7.85;;;;;;;21.68;76.65;95022.78;5051334;28;20186;-45
2023/09/09 05:51:18;;;;;;;10.48;7.50;;;;;;;21.83;75.55;95033.81;5051566;28;20546;-45
2023/09/09 05:53:45;;;;;;;13.77;8.15;;;;;;;21.75;75.55;95039.19;5051160;28;20256;-45
2023/09/09 05:56:12;;;;;;;8.88;7.22;;;;;;;21.80;75.47;95036.78;5051242;28;20222;-44
2023/09/09 05:58:40;;;;;;;14.05;8.18;;;;;;;21.86;75.28;95038.63;5051049;28;20265;-43
2023/09/09 06:01:07;;;;;;;9.98;7.47;;;;;;;21.98;74.81;95042.25;5050814;28;20269;-42
2023/09/09 06:03:35;;;;;;;10.50;7.43;;;;;;;22.03;73.88;95032.03;5050909;28;20183;-44
2023/09/09 06:06:02;;;;;;;12.23;7.65;;;;;;;22.04;73.66;95004.16;5050918;28;20548;-44
2023/09/09 06:08:29;;;;;;;8.50;6.55;;;;;;;22.49;72.64;95031.19;5051116;28;20733;-45
2023/09/09 06:10:56;;;;;;;9.18;7.57;;;;;;;22.62;72.05;95029.56;5050669;28;20194;-44
2023/09/09 06:13:23;;;;;;;12.82;7.53;;;;;;;22.73;71.14;95031.56;5050836;28;20293;-43
2023/09/09 06:15:51;;;;;;;13.00;7.90;;;;;;;22.75;71.07;95025.16;5050686;28;20226;-43
2023/09/09 06:18:18;;;;;;;13.43;7.40;;;;;;;22.90;71.04;95034.56;5050971;28;20543;-44
2023/09/09 06:20:47;;;;;;;10.23;7.43;;;;;;;22.93;70.25;95018.50;5050234;28;20236;-43
2023/09/09 06:23:14;;;;;;;12.88;8.23;;;;;;;23.19;69.90;95035.88;5050588;28;20302;-44
2023/09/09 06:25:41;;;;;;;11.85;6.93;;;;;;;23.41;69.29;95037.16;5050450;28;20191;-44
2023/09/09 06:28:08;;;;;;;12.43;7.93;;;;;;;23.62;68.50;95037.84;5050104;28;20190;-44
2023/09/09 06:30:35;;;;;;;11.30;7.82;;;;;;;23.73;67.74;95038.00;5050283;28;20254;-44
2023/09/09 06:33:04;;;;;;;16.98;8.68;;;;;;;23.82;66.94;95041.16;5050790;28;20286;-43
2023/09/09 06:35:31;;;;;;;9.20;8.18;;;;;;;23.96;66.70;95034.84;5050297;28;20510;-44
2023/09/09 06:37:57;;;;;;;9.75;7.00;;;;;;;24.07;66.43;95038.56;5050564;28;20194;-44
2023/09/09 06:40:24;;;;;;;9.38;6.93;;;;;;;24.37;66.01;95038.75;5050183;28;20191;-42
2023/09/09 06:42:51;;;;;;;9.38;6.95;;;;;;;24.80;64.19;95037.16;5050153;28;20187;-43
2023/09/09 06:45:18;;;;;;;14.50;7.65;;;;;;;25.14;63.73;95033.97;5050417;28;20199;-43
2023/09/09 06:47:45;;;;;;;11.80;7.43;;;;;;;25.38;62.07;95018.34;5050091;28;20203;-43
2023/09/09 06:50:13;;;;;;;13.95;9.20;;;;;;;25.82;60.25;95046.00;5050440;28;20198;-44
2023/09/09 06:52:40;;;;;;;12.65;7.75;;;;;;;25.99;60.35;95043.50;5049946;28;20187;-43
2023/09/09 06:55:08;;;;;;;9.13;7.03;;;;;;;26.30;59.26;95039.81;5050278;28;20191;-44
2023/09/09 06:57:35;;;;;;;9.10;7.13;;;;;;;26.58;58.31;95047.03;5050073;28;20202;-43
2023/09/09 07:00:03;;;;;;;8.38;7.10;;;;;;;26.80;57.25;95047.25;5050270;28;20205;-44
2023/09/09 07:02:30;;;;;;;12.05;6.53;;;;;;;26.96;56.45;95043.91;5050071;28;20198;-44
2023/09/09 07:04:57;;;;;;;9.55;7.15;;;;;;;27.00;55.95;95046.88;5050088;28;20240;-45
2023/09/09 07:07:25;;;;;;;11.70;6.82;;;;;;;27.02;56.09;95044.81;5049775;28;20278;-43
2023/09/09 07:09:52;;;;;;;7.78;6.97;;;;;;;27.14;55.75;95042.97;5050018;28;20245;-43
2023/09/09 07:12:19;;;;;;;13.13;6.95;;;;;;;27.27;55.11;95036.66;5049659;28;20194;-43
2023/09/09 07:14:45;;;;;;;9.25;6.70;;;;;;;27.22;54.78;95036.56;5049927;28;20202;-42
2023/09/09 07:17:12;;;;;;;7.55;6.38;;;;;;;27.24;53.46;95045.00;5049573;28;20650;-43
2023/09/09 07:19:39;;;;;;;13.93;6.13;;;;;;;27.44;52.68;95049.88;5049689;28;20658;-44
2023/09/09 07:22:06;;;;;;;12.52;6.03;;;;;;;27.63;53.36;95042.59;5049598;28;20662;-43
2023/09/09 07:24:34;;;;;;;6.85;5.40;;;;;;;27.96;50.33;95042.69;5049231;28;20183;-44
2023/09/09 07:27:03;;;;;;;8.45;5.28;;;;;;;28.09;51.04;95046.03;5049455;28;20199;-44
2023/09/09 07:29:30;;;;;;;6.65;5.93;;;;;;;28.15;50.07;95045.91;5049151;28;20254;-44
2023/09/09 07:31:57;;;;;;;5.85;4.57;;;;;;;28.31;48.78;95046.13;5048784;28;20253;-45
2023/09/09 07:34:24;;;;;;;6.68;4.97;;;;;;;28.50;47.57;95040.41;5049147;28;20215;-44
2023/09/09 07:36:52;;;;;;;6.32;4.93;;;;;;;28.60;47.67;95049.47;5049199;28;20225;-43
2023/09/09 07:39:18;;;;;;;5.60;4.20;;;;;;;28.70;45.53;95054.88;5048990;28;20641;-44
2023/09/09 07:41:46;;;;;;;5.13;4.07;;;;;;;28.59;45.00;95030.25;5049594;28;20198;-42
2023/09/09 07:44:13;;;;;;;6.03;3.33;;;;;;;28.87;43.27;95050.38;5049220;28;20195;-42
2023/09/09 07:46:40;;;;;;;5.18;3.78;;;;;;;28.88;40.56;95049.31;5050168;28;20681;-46
2023/09/09 07:49:07;;;;;;;5.85;3.50;;;;;;;28.91;40.45;95048.06;5050802;28;20201;-45
2023/09/09 07:51:35;;;;;;;6.55;3.47;;;;;;;29.00;40.25;95044.78;5050263;28;20202;-45
2023/09/09 07:54:01;;;;;;;5.25;3.35;;;;;;;29.14;39.76;95047.06;5049288;28;20199;-43
2023/09/09 07:56:28;;;;;;;4.95;3.40;;;;;;;29.20;39.84;95038.19;5048766;28;20222;-44
2023/09/09 07:58:56;;;;;;;4.88;3.53;;;;;;;29.07;39.21;95022.75;5049532;28;20256;-44
2023/09/09 08:01:23;;;;;;;3.15;2.90;;;;;;;29.27;38.68;95048.53;5049102;28;20195;-44
2023/09/09 08:03:50;;;;;;;4.07;2.92;;;;;;;29.30;38.09;95038.28;5049289;28;20648;-44
2023/09/09 08:06:17;;;;;;;6.72;3.10;;;;;;;29.38;38.66;95043.13;5048965;28;20195;-44
2023/09/09 08:08:43;;;;;;;6.25;2.90;;;;;;;29.44;37.89;95044.75;5049131;28;20260;-43
2023/09/09 08:11:11;;;;;;;4.68;2.58;;;;;;;29.40;36.46;95038.38;5048613;28;20198;-43
2023/09/09 08:13:38;;;;;;;3.00;2.70;;;;;;;29.50;35.20;95048.28;5049113;28;20202;-44
2023/09/09 08:16:09;;;;;;;9.30;3.10;;;;;;;29.45;35.76;95045.59;5049126;28;20211;-43
2023/09/09 08:18:35;;;;;;;3.65;2.80;;;;;;;29.17;35.71;95039.47;5048951;28;20637;-44
2023/09/09 08:21:03;;;;;;;5.95;2.80;;;;;;;29.15;35.99;95043.41;5048557;28;20191;-43
2023/09/09 08:23:29;;;;;;;4.57;2.63;;;;;;;29.19;34.89;95034.75;5048904;28;20187;-43
2023/09/09 08:25:56;;;;;;;3.45;2.50;;;;;;;29.13;34.83;95038.34;5049211;28;20195;-43
2023/09/09 08:28:23;;;;;;;3.70;2.90;;;;;;;29.11;35.68;95037.81;5048757;28;20191;-43
2023/09/09 08:30:50;;;;;;;3.20;2.90;;;;;;;29.12;35.62;95023.59;5048756;28;20245;-43
2023/09/09 08:33:18;;;;;;;3.47;2.70;;;;;;;29.08;35.26;95040.13;5048406;28;20202;-43
2023/09/09 08:35:45;;;;;;;4.50;2.90;;;;;;;28.70;35.77;95025.91;5048505;28;20187;-43
2023/09/09 08:38:11;;;;;;;4.47;3.10;;;;;;;28.55;36.06;95025.72;5048350;28;20238;-43
2023/09/09 08:40:50;;;;;;;7.47;3.08;;;;;;;28.42;36.10;95021.59;5048675;28;20698;-44
2023/09/09 08:43:23;;;;;;;4.00;2.95;;;;;;;28.45;36.16;95029.00;5050617;28;20194;-43
2023/09/09 08:46:00;;;;;;;4.93;2.60;;;;;;;28.27;36.33;95006.34;5052713;28;20238;-44
2023/09/09 08:48:28;;;;;;;5.45;2.90;;;;;;;28.30;35.68;95005.88;5052302;28;20564;-43
2023/09/09 08:50:59;;;;;;;4.10;3.20;;;;;;;28.30;35.94;95012.97;5052394;28;20199;-44
2023/09/09 08:53:28;;;;;;;2.40;2.20;;;;;;;28.33;36.01;95020.38;5052230;28;20195;-44
2023/09/09 08:55:56;;;;;;;5.72;3.35;;;;;;;28.38;35.20;95009.97;5052639;28;20299;-44
2023/09/09 08:58:24;;;;;;;3.28;2.35;;;;;;;28.40;35.35;95016.56;5052334;28;20252;-44
2023/09/09 09:00:51;;;;;;;7.43;3.45;;;;;;;28.24;34.88;95015.53;5052412;28;20210;-44
2023/09/09 09:03:19;;;;;;;6.85;2.53;;;;;;;28.18;35.22;95015.66;5052255;28;20190;-44
2023/09/09 09:05:48;;;;;;;5.40;3.05;;;;;;;27.65;35.77;94956.44;5052159;28;20195;-43
2023/09/09 09:08:14;;;;;;;4.32;2.80;;;;;;;27.96;35.83;95008.50;5052136;28;20260;-43
2023/09/09 09:10:42;;;;;;;4.22;2.95;;;;;;;28.02;35.84;95012.00;5052170;28;20195;-44
2023/09/09 09:13:09;;;;;;;4.28;3.13;;;;;;;27.83;35.96;95011.44;5051726;28;20202;-44
2023/09/09 09:15:38;;;;;;;4.97;3.33;;;;;;;27.60;35.72;94998.41;5052527;28;20179;-45
2023/09/09 09:18:05;;;;;;;3.75;2.88;;;;;;;27.62;35.31;95012.09;5051670;28;20211;-43
2023/09/09 09:20:34;;;;;;;6.18;3.00;;;;;;;27.67;35.41;95007.72;5051858;28;20194;-44
2023/09/09 09:23:04;;;;;;;5.45;2.55;;;;;;;27.76;34.60;95005.53;5052014;28;20206;-46
2023/09/09 09:25:36;;;;;;;3.25;2.15;;;;;;;27.75;35.05;95006.56;5051767;28;20191;-44
2023/09/09 09:28:04;;;;;;;7.18;3.13;;;;;;;27.59;34.53;94973.97;5051747;28;20188;-44
2023/09/09 09:30:32;;;;;;;3.05;2.80;;;;;;;27.78;34.54;95000.03;5051546;28;20235;-44
2023/09/09 09:32:59;;;;;;;5.00;2.63;;;;;;;27.69;34.69;94995.16;5051479;28;20191;-42
2023/09/09 09:35:27;;;;;;;4.93;2.60;;;;;;;27.69;34.88;94995.16;5051677;28;20195;-43
2023/09/09 09:37:56;;;;;;;4.57;2.20;;;;;;;27.69;34.11;94996.97;5051997;28;20211;-44
2023/09/09 09:40:25;;;;;;;6.70;3.78;;;;;;;27.63;33.94;94995.28;5051951;28;20539;-44
2023/09/09 09:42:52;;;;;;;2.90;2.60;;;;;;;27.57;34.67;94986.53;5051695;28;20191;-44
2023/09/09 09:45:24;;;;;;;4.18;2.75;;;;;;;27.57;34.39;94985.72;5051198;28;20186;-43
2023/09/09 09:47:51;;;;;;;3.65;2.63;;;;;;;27.57;34.41;94983.88;5051539;28;20202;-44
2023/09/09 09:50:19;;;;;;;4.53;2.58;;;;;;;27.59;34.03;94981.03;5051215;28;20210;-44
2023/09/09 09:52:56;;;;;;;4.05;3.33;;;;;;;27.66;33.60;94982.47;5051435;28;20206;-44
2023/09/09 09:55:24;;;;;;;3.97;2.60;;;;;;;27.55;33.99;94964.13;5050174;28;20274;-44
2023/09/09 09:57:54;;;;;;;2.78;2.40;;;;;;;27.49;33.81;94973.75;5050959;28;20736;-44
2023/09/09 10:00:22;;;;;;;2.88;2.10;;;;;;;27.37;33.73;94971.19;5050614;28;20272;-44
2023/09/09 10:02:52;;;;;;;3.50;2.33;;;;;;;27.31;33.65;94974.75;5051013;28;20245;-43
2023/09/09 10:05:21;;;;;;;2.72;2.38;;;;;;;27.20;33.74;94959.84;5050778;28;20305;-43
2023/09/09 10:07:52;;;;;;;4.20;2.60;;;;;;;27.19;34.07;94972.19;5051159;28;20218;-44
2023/09/09 10:10:22;;;;;;;6.85;2.58;;;;;;;26.95;33.80;94965.41;5050748;28;20880;-43
2023/09/09 10:12:53;;;;;;;4.55;2.40;;;;;;;26.86;33.90;94951.06;5051184;28;20191;-43
2023/09/09 10:15:21;;;;;;;6.57;2.55;;;;;;;26.80;33.99;94955.38;5050801;28;20206;-43
2023/09/09 10:17:50;;;;;;;5.22;2.38;;;;;;;26.76;33.73;94951.63;5050853;28;20298;-43
2023/09/09 10:20:18;;;;;;;3.28;2.40;;;;;;;26.80;34.02;94958.00;5050527;28;20281;-44
2023/09/09 10:22:46;;;;;;;2.92;2.50;;;;;;;26.96;34.05;94952.03;5051004;28;20191;-44
2023/09/09 10:25:13;;;;;;;2.65;2.45;;;;;;;26.92;34.27;94944.84;5050473;28;20264;-44
2023/09/09 10:27:41;;;;;;;3.28;2.97;;;;;;;26.90;34.23;94949.53;5050639;28;20253;-44
2023/09/09 10:30:11;;;;;;;6.22;2.50;;;;;;;26.93;34.81;94949.88;5050176;28;20686;-45
2023/09/09 10:32:38;;;;;;;4.55;2.40;;;;;;;27.05;34.01;94947.22;5050524;28;20195;-44
2023/09/09 10:35:06;;;;;;;4.30;2.50;;;;;;;27.13;34.20;94943.44;5050352;28;20195;-44
2023/09/09 10:37:35;;;;;;;5.75;2.55;;;;;;;27.18;34.02;94940.91;5050310;28;20313;-43
2023/09/09 10:40:04;;;;;;;2.97;2.22;;;;;;;27.14;33.51;94939.78;5050274;28;20689;-43
2023/09/09 10:42:32;;;;;;;4.97;2.60;;;;;;;26.67;33.97;94863.81;5050364;28;20233;-45
2023/09/09 10:45:25;;;;;;;2.50;2.30;;;;;;;27.16;33.78;94924.56;5050357;28;20191;-43
2023/09/09 10:47:54;;;;;;;5.80;2.38;;;;;;;27.16;33.26;94927.19;5050645;28;20237;-43
2023/09/09 10:50:21;;;;;;;3.33;2.42;;;;;;;27.14;33.55;94922.19;5049947;28;20678;-43
2023/09/09 10:52:52;;;;;;;4.70;2.45;;;;;;;27.10;33.15;94917.66;5050309;28;20715;-43
2023/09/09 10:55:29;;;;;;;2.55;2.30;;;;;;;27.06;33.34;94924.38;5050162;28;20539;-43
2023/09/09 10:57:59;;;;;;;2.60;2.33;;;;;;;27.06;32.71;94912.03;5050155;28;20297;-43
2023/09/09 11:00:41;;;;;;;3.35;2.10;;;;;;;26.88;33.43;94920.91;5049769;28;20187;-43
2023/09/09 11:03:12;;;;;;;3.10;2.30;;;;;;;26.88;32.73;94906.97;5050091;28;20225;-44
2023/09/09 11:06:03;;;;;;;4.15;2.20;;;;;;;26.93;33.13;94909.69;5049615;28;20335;-45
2023/09/09 11:08:32;;;;;;;2.63;2.22;;;;;;;26.96;32.86;94911.88;5049767;28;20282;-43
2023/09/09 11:11:13;;;;;;;3.38;2.55;;;;;;;27.11;32.31;94912.16;5049936;28;20191;-44
2023/09/09 11:13:42;;;;;;;3.45;2.28;;;;;;;27.14;32.68;94903.03;5049493;28;20278;-44
2023/09/09 11:16:31;;;;;;;5.10;2.33;;;;;;;27.13;32.68;94920.59;5049693;28;20195;-45
2023/09/09 11:18:58;;;;;;;6.00;2.22;;;;;;;26.99;32.41;94909.56;5049416;28;20198;-43
2023/09/09 11:21:25;;;;;;;4.18;2.28;;;;;;;27.06;32.04;94922.53;5049800;28;20187;-43
2023/09/09 11:23:53;;;;;;;2.25;2.05;;;;;;;26.96;32.27;94891.66;5049323;28;20585;-44
2023/09/09 11:26:20;;;;;;;2.30;2.10;;;;;;;27.12;32.33;94915.59;5049406;28;20183;-43
2023/09/09 11:28:49;;;;;;;2.72;2.08;;;;;;;27.12;31.88;94913.78;5049502;28;20275;-44
2023/09/09 11:31:17;;;;;;;4.63;2.50;;;;;;;27.03;31.87;94902.03;5049295;28;20254;-43
2023/09/09 11:33:45;;;;;;;3.55;1.83;;;;;;;27.01;31.60;94904.06;5049482;28;20229;-44